createdAt,value
2023-03-02T00:00:20.517Z,6.50
2023-03-02T00:01:20.713Z,6.55
2023-03-02T00:02:20.934Z,6.52
2023-03-02T00:03:21.065Z,6.47
2023-03-02T00:04:21.241Z,6.54
2023-03-02T00:05:21.410Z,6.47
2023-03-02T00:06:21.571Z,6.49
2023-03-02T00:07:21.728Z,6.47
2023-03-02T00:08:21.894Z,6.46
2023-03-02T00:09:22.128Z,6.46
2023-03-02T00:10:22.254Z,6.50
2023-03-02T00:11:22.410Z,6.46
2023-03-02T00:12:22.565Z,6.47
2023-03-02T00:13:22.770Z,6.45
2023-03-02T00:14:22.952Z,6.45
2023-03-02T00:15:23.106Z,6.46
2023-03-02T00:16:23.349Z,6.43
2023-03-02T00:17:23.443Z,6.42
2023-03-02T00:18:23.616Z,6.45
2023-03-02T00:19:23.773Z,6.43
2023-03-02T00:20:23.945Z,6.40
2023-03-02T00:21:24.104Z,6.37
2023-03-02T00:22:24.258Z,6.37
2023-03-02T00:23:24.468Z,6.36
2023-03-02T00:24:24.632Z,6.36
2023-03-02T00:25:24.805Z,6.34
2023-03-02T00:26:24.950Z,6.36
2023-03-02T00:27:25.137Z,6.29
2023-03-02T00:28:25.282Z,6.34
2023-03-02T00:29:25.524Z,6.31
2023-03-02T00:30:25.643Z,6.29
2023-03-02T00:31:25.875Z,6.27
2023-03-02T00:32:26.051Z,6.25
2023-03-02T00:33:26.204Z,6.27
2023-03-02T00:34:26.366Z,6.25
2023-03-02T00:35:26.556Z,6.21
2023-03-02T00:36:26.682Z,6.22
2023-03-02T00:37:26.865Z,6.20
2023-03-02T00:38:27.014Z,6.17
2023-03-02T00:39:27.236Z,6.17
2023-03-02T00:40:27.380Z,6.14
2023-03-02T00:41:27.602Z,6.18
2023-03-02T00:42:27.769Z,6.13
2023-03-02T00:43:27.972Z,6.13
2023-03-02T00:44:28.112Z,6.12
2023-03-02T00:45:28.280Z,6.09
2023-03-02T00:46:28.541Z,6.12
2023-03-02T00:47:28.601Z,6.12
2023-03-02T00:48:28.797Z,6.07
2023-03-02T00:49:29.011Z,6.10
2023-03-02T00:50:29.156Z,6.07
2023-03-02T00:51:29.364Z,6.04
2023-03-02T00:52:29.538Z,6.06
2023-03-02T00:53:29.749Z,6.03
2023-03-02T00:54:29.898Z,6.03
2023-03-02T00:55:30.085Z,6.04
2023-03-02T00:56:30.669Z,6.06
2023-03-02T00:57:30.456Z,6.02
2023-03-02T00:58:30.670Z,6.02
2023-03-02T00:59:30.826Z,6.03
2023-03-02T01:00:30.971Z,6.00
2023-03-02T01:01:31.167Z,6.02
2023-03-02T01:02:31.419Z,6.00
2023-03-02T01:03:31.635Z,5.99
2023-03-02T01:04:31.762Z,5.95
2023-03-02T01:05:31.902Z,5.99
2023-03-02T01:06:32.498Z,5.95
2023-03-02T01:07:32.261Z,5.95
2023-03-02T01:08:32.458Z,5.91
2023-03-02T01:09:32.605Z,5.96
2023-03-02T01:10:32.766Z,5.88
2023-03-02T01:11:32.933Z,5.91
2023-03-02T01:12:33.129Z,5.92
2023-03-02T01:13:33.292Z,5.89
2023-03-02T01:14:33.449Z,5.88
2023-03-02T01:15:33.640Z,5.84
2023-03-02T01:16:34.328Z,5.85
2023-03-02T01:17:34.005Z,5.82
2023-03-02T01:18:34.199Z,5.84
2023-03-02T01:19:34.361Z,5.81
2023-03-02T01:20:34.519Z,5.82
2023-03-02T01:21:34.680Z,5.79
2023-03-02T01:22:34.881Z,5.77
2023-03-02T01:23:35.041Z,5.79
2023-03-02T01:24:35.220Z,5.76
2023-03-02T01:25:35.385Z,5.74
2023-03-02T01:26:35.528Z,5.73
2023-03-02T01:27:35.725Z,5.77
2023-03-02T01:28:35.906Z,5.73
2023-03-02T01:29:36.074Z,5.73
2023-03-02T01:30:36.226Z,5.74
2023-03-02T01:31:36.504Z,5.71
2023-03-02T01:32:36.585Z,5.70
2023-03-02T01:33:36.731Z,5.73
2023-03-02T01:34:36.884Z,5.71
2023-03-02T01:35:37.129Z,5.74
2023-03-02T01:36:37.235Z,5.71
2023-03-02T01:37:37.402Z,5.74
2023-03-02T01:38:37.722Z,5.71
2023-03-02T01:39:37.756Z,5.70
2023-03-02T01:40:37.905Z,5.70
2023-03-02T01:41:38.101Z,5.67
2023-03-02T01:42:38.257Z,5.71
2023-03-02T01:43:38.482Z,5.66
2023-03-02T01:44:38.615Z,5.70
2023-03-02T01:45:38.821Z,5.69
2023-03-02T01:46:38.977Z,5.70
2023-03-02T01:47:39.183Z,5.66
2023-03-02T01:48:39.349Z,5.62
2023-03-02T01:49:39.510Z,5.63
2023-03-02T01:50:39.659Z,5.62
2023-03-02T01:51:39.860Z,5.63
2023-03-02T01:52:40.015Z,5.62
2023-03-02T01:53:40.192Z,5.63
2023-03-02T01:54:40.346Z,5.55
2023-03-02T01:55:40.550Z,5.57
2023-03-02T01:56:40.706Z,5.58
2023-03-02T01:57:40.866Z,5.54
2023-03-02T01:58:41.078Z,5.58
2023-03-02T01:59:41.239Z,5.52
2023-03-02T02:00:41.444Z,5.52
2023-03-02T02:01:41.572Z,5.51
2023-03-02T02:02:41.753Z,5.50
2023-03-02T02:03:41.969Z,5.47
2023-03-02T02:04:42.117Z,5.47
2023-03-02T02:05:42.339Z,5.47
2023-03-02T02:06:42.489Z,5.48
2023-03-02T02:07:42.657Z,5.48
2023-03-02T02:08:42.824Z,5.44
2023-03-02T02:09:42.992Z,5.44
2023-03-02T02:10:43.150Z,5.44
2023-03-02T02:11:43.308Z,5.39
2023-03-02T02:12:43.458Z,5.39
2023-03-02T02:13:43.662Z,5.39
2023-03-02T02:14:43.859Z,5.39
2023-03-02T02:15:43.994Z,5.33
2023-03-02T02:16:44.233Z,5.37
2023-03-02T02:17:44.360Z,5.36
2023-03-02T02:18:44.549Z,5.37
2023-03-02T02:19:44.731Z,5.32
2023-03-02T02:20:44.881Z,5.33
2023-03-02T02:21:45.040Z,5.32
2023-03-02T02:22:45.244Z,5.29
2023-03-02T02:23:45.391Z,5.29
2023-03-02T02:24:45.630Z,5.32
2023-03-02T02:25:45.738Z,5.29
2023-03-02T02:26:45.912Z,5.29
2023-03-02T02:27:46.062Z,5.24
2023-03-02T02:28:46.243Z,5.23
2023-03-02T02:29:46.470Z,5.19
2023-03-02T02:30:46.634Z,5.21
2023-03-02T02:31:46.866Z,5.23
2023-03-02T02:32:47.009Z,5.16
2023-03-02T02:33:47.141Z,5.16
2023-03-02T02:34:47.372Z,5.15
2023-03-02T02:35:47.484Z,5.19
2023-03-02T02:36:47.768Z,5.16
2023-03-02T02:37:47.853Z,5.12
2023-03-02T02:38:48.025Z,5.16
2023-03-02T02:39:48.217Z,5.14
2023-03-02T02:40:48.376Z,5.14
2023-03-02T02:41:48.524Z,5.11
2023-03-02T02:42:48.721Z,5.12
2023-03-02T02:43:48.876Z,5.14
2023-03-02T02:44:49.118Z,5.09
2023-03-02T02:45:49.306Z,5.07
2023-03-02T02:46:49.414Z,5.04
2023-03-02T02:47:49.650Z,5.07
2023-03-02T02:48:49.778Z,5.05
2023-03-02T02:49:49.959Z,5.07
2023-03-02T02:50:50.106Z,5.01
2023-03-02T02:51:50.291Z,5.01
2023-03-02T02:52:50.485Z,5.01
2023-03-02T02:53:50.640Z,5.05
2023-03-02T02:54:50.878Z,5.00
2023-03-02T02:55:50.970Z,5.00
2023-03-02T02:56:51.186Z,4.99
2023-03-02T02:57:51.362Z,4.99
2023-03-02T02:58:51.504Z,5.00
2023-03-02T02:59:51.699Z,4.97
2023-03-02T03:00:51.916Z,4.97
2023-03-02T03:01:52.022Z,4.97
2023-03-02T03:02:52.217Z,4.96
2023-03-02T03:03:52.501Z,4.94
2023-03-02T03:04:52.623Z,4.94
2023-03-02T03:05:52.749Z,4.93
2023-03-02T03:06:52.912Z,4.97
2023-03-02T03:07:53.057Z,4.96
2023-03-02T03:08:53.270Z,4.93
2023-03-02T03:09:53.457Z,4.94
2023-03-02T03:10:53.591Z,4.94
2023-03-02T03:11:53.776Z,4.93
2023-03-02T03:12:53.958Z,4.90
2023-03-02T03:13:54.148Z,4.90
2023-03-02T03:14:54.374Z,4.90
2023-03-02T03:15:54.543Z,4.87
2023-03-02T03:16:54.745Z,4.86
2023-03-02T03:17:54.868Z,4.91
2023-03-02T03:18:55.040Z,4.91
2023-03-02T03:19:55.236Z,4.91
2023-03-02T03:20:55.392Z,4.91
2023-03-02T03:21:55.593Z,4.87
2023-03-02T03:22:55.760Z,4.90
2023-03-02T03:23:55.906Z,4.90
2023-03-02T03:24:56.123Z,4.89
2023-03-02T03:25:56.267Z,4.90
2023-03-02T03:26:56.459Z,4.89
2023-03-02T03:27:56.600Z,4.83
2023-03-02T03:28:56.754Z,4.87
2023-03-02T03:29:56.905Z,4.82
2023-03-02T03:30:57.139Z,4.86
2023-03-02T03:31:57.304Z,4.82
2023-03-02T03:32:57.477Z,4.82
2023-03-02T03:33:57.629Z,4.81
2023-03-02T03:34:57.780Z,4.86
2023-03-02T03:35:58.036Z,4.81
2023-03-02T03:36:58.135Z,4.78
2023-03-02T03:37:58.298Z,4.75
2023-03-02T03:38:58.490Z,4.79
2023-03-02T03:39:58.633Z,4.76
2023-03-02T03:40:58.828Z,4.78
2023-03-02T03:41:59.026Z,4.78
2023-03-02T03:42:59.143Z,4.75
2023-03-02T03:43:59.331Z,4.76
2023-03-02T03:44:59.489Z,4.72
2023-03-02T03:45:59.699Z,4.73
2023-03-02T03:46:59.864Z,4.71
2023-03-02T03:48:00.049Z,4.73
2023-03-02T03:49:00.226Z,4.71
2023-03-02T03:50:00.363Z,4.72
2023-03-02T03:51:00.555Z,4.71
2023-03-02T03:52:00.753Z,4.72
2023-03-02T03:53:03.430Z,4.72
2023-03-02T03:54:01.119Z,4.69
2023-03-02T03:55:01.306Z,4.65
2023-03-02T03:56:01.482Z,4.69
2023-03-02T03:57:01.650Z,4.64
2023-03-02T03:58:01.834Z,4.65
2023-03-02T03:59:01.968Z,4.65
2023-03-02T04:00:02.178Z,4.65
2023-03-02T04:01:02.335Z,4.63
2023-03-02T04:02:02.514Z,4.60
2023-03-02T04:03:02.687Z,4.61
2023-03-02T04:04:02.848Z,4.58
2023-03-02T04:05:03.006Z,4.55
2023-03-02T04:06:03.146Z,4.58
2023-03-02T04:07:03.347Z,4.55
2023-03-02T04:08:03.575Z,4.57
2023-03-02T04:09:03.731Z,4.58
2023-03-02T04:10:03.899Z,4.55
2023-03-02T04:11:04.101Z,4.55
2023-03-02T04:12:04.236Z,4.51
2023-03-02T04:13:04.418Z,4.50
2023-03-02T04:14:04.580Z,4.54
2023-03-02T04:15:04.744Z,4.54
2023-03-02T04:16:04.935Z,4.51
2023-03-02T04:17:05.059Z,4.50
2023-03-02T04:18:05.281Z,4.50
2023-03-02T04:19:05.463Z,4.53
2023-03-02T04:20:05.588Z,4.48
2023-03-02T04:21:05.778Z,4.48
2023-03-02T04:22:05.943Z,4.45
2023-03-02T04:23:06.154Z,4.40
2023-03-02T04:24:06.273Z,4.46
2023-03-02T04:25:06.454Z,4.45
2023-03-02T04:27:11.014Z,4.46
2023-03-02T04:28:11.225Z,4.39
2023-03-02T04:29:11.382Z,4.36
2023-03-02T04:30:11.535Z,4.39
2023-03-02T04:31:11.726Z,4.36
2023-03-02T04:32:11.884Z,4.36
2023-03-02T04:33:12.043Z,4.36
2023-03-02T04:34:12.196Z,4.40
2023-03-02T04:35:12.376Z,4.39
2023-03-02T04:36:12.510Z,4.38
2023-03-02T04:37:12.724Z,4.39
2023-03-02T04:38:12.867Z,4.38
2023-03-02T04:39:13.038Z,4.33
2023-03-02T04:40:13.229Z,4.39
2023-03-02T04:41:13.410Z,4.39
2023-03-02T04:42:13.604Z,4.39
2023-03-02T04:43:13.759Z,4.39
2023-03-02T04:44:13.906Z,4.38
2023-03-02T04:45:14.106Z,4.38
2023-03-02T04:46:14.352Z,4.40
2023-03-02T04:47:14.458Z,4.39
2023-03-02T04:48:14.627Z,4.38
2023-03-02T04:49:14.822Z,4.35
2023-03-02T04:50:14.953Z,4.36
2023-03-02T04:51:15.094Z,4.38
2023-03-02T04:52:15.299Z,4.38
2023-03-02T04:53:15.449Z,4.36
2023-03-02T04:54:15.623Z,4.33
2023-03-02T04:55:15.791Z,4.33
2023-03-02T04:56:15.962Z,4.36
2023-03-02T04:57:16.152Z,4.35
2023-03-02T04:58:16.301Z,4.36
2023-03-02T04:59:16.472Z,4.33
2023-03-02T05:00:16.627Z,4.33
2023-03-02T05:01:16.801Z,4.35
2023-03-02T05:02:17.070Z,4.28
2023-03-02T05:03:17.195Z,4.35
2023-03-02T05:04:17.364Z,4.30
2023-03-02T05:05:17.511Z,4.32
2023-03-02T05:06:17.674Z,4.28
2023-03-02T05:07:17.838Z,4.28
2023-03-02T05:08:17.994Z,4.30
2023-03-02T05:09:18.189Z,4.33
2023-03-02T05:10:18.362Z,4.30
2023-03-02T05:11:18.533Z,4.30
2023-03-02T05:12:18.739Z,4.28
2023-03-02T05:13:18.888Z,4.32
2023-03-02T05:14:19.081Z,4.28
2023-03-02T05:15:19.233Z,4.21
2023-03-02T05:16:19.634Z,4.25
2023-03-02T05:17:19.593Z,4.25
2023-03-02T05:18:19.773Z,4.27
2023-03-02T05:19:19.918Z,4.32
2023-03-02T05:20:20.142Z,4.30
2023-03-02T05:21:20.248Z,4.25
2023-03-02T05:22:20.426Z,4.25
2023-03-02T05:23:20.575Z,4.24
2023-03-02T05:24:20.784Z,4.27
2023-03-02T05:25:20.944Z,4.27
2023-03-02T05:26:21.113Z,4.24
2023-03-02T05:27:21.306Z,4.24
2023-03-02T05:28:21.467Z,4.21
2023-03-02T05:29:21.643Z,4.25
2023-03-02T05:30:21.831Z,4.20
2023-03-02T05:31:22.046Z,4.25
2023-03-02T05:32:22.264Z,4.21
2023-03-02T05:33:22.330Z,4.16
2023-03-02T05:34:22.496Z,4.20
2023-03-02T05:35:22.794Z,4.21
2023-03-02T05:36:23.388Z,4.21
2023-03-02T05:37:23.042Z,4.21
2023-03-02T05:38:23.197Z,4.21
2023-03-02T05:39:23.351Z,4.20
2023-03-02T05:40:23.512Z,4.20
2023-03-02T05:41:23.705Z,4.24
2023-03-02T05:42:23.887Z,4.20
2023-03-02T05:43:24.063Z,4.20
2023-03-02T05:44:24.215Z,4.21
2023-03-02T05:45:24.419Z,4.17
2023-03-02T05:46:24.699Z,4.14
2023-03-02T05:47:24.754Z,4.20
2023-03-02T05:48:24.920Z,4.21
2023-03-02T05:49:25.115Z,4.19
2023-03-02T05:50:25.250Z,4.20
2023-03-02T05:51:25.433Z,4.21
2023-03-02T05:52:25.610Z,4.17
2023-03-02T05:53:25.784Z,4.20
2023-03-02T05:54:25.963Z,4.21
2023-03-02T05:55:26.122Z,4.24
2023-03-02T05:56:26.333Z,4.19
2023-03-02T05:57:26.461Z,4.19
2023-03-02T05:58:26.634Z,4.25
2023-03-02T05:59:26.802Z,4.25
2023-03-02T06:00:26.979Z,4.20
2023-03-02T06:01:27.164Z,4.20
2023-03-02T06:02:27.403Z,4.24
2023-03-02T06:03:27.620Z,4.25
2023-03-02T06:04:27.693Z,4.24
2023-03-02T06:05:27.996Z,4.21
2023-03-02T06:06:28.113Z,4.20
2023-03-02T06:07:28.243Z,4.28
2023-03-02T06:08:28.363Z,4.24
2023-03-02T06:09:28.549Z,4.28
2023-03-02T06:10:28.728Z,4.25
2023-03-02T06:11:28.890Z,4.25
2023-03-02T06:12:29.052Z,4.27
2023-03-02T06:13:29.349Z,4.24
2023-03-02T06:14:29.441Z,4.28
2023-03-02T06:15:29.613Z,4.27
2023-03-02T06:16:29.890Z,4.24
2023-03-02T06:17:29.941Z,4.27
2023-03-02T06:18:30.114Z,4.28
2023-03-02T06:19:30.334Z,4.27
2023-03-02T06:20:30.478Z,4.27
2023-03-02T06:21:30.660Z,4.28
2023-03-02T06:22:30.834Z,4.28
2023-03-02T06:23:30.998Z,4.30
2023-03-02T06:24:31.219Z,4.33
2023-03-02T06:25:31.355Z,4.30
2023-03-02T06:26:31.819Z,4.35
2023-03-02T06:27:31.659Z,4.32
2023-03-02T06:28:32.875Z,4.30
2023-03-02T06:29:32.879Z,4.32
2023-03-02T06:30:32.193Z,4.35
2023-03-02T06:31:32.362Z,4.33
2023-03-02T06:32:32.572Z,4.39
2023-03-02T06:33:32.694Z,4.33
2023-03-02T06:34:35.181Z,4.36
2023-03-02T06:35:33.087Z,4.36
2023-03-02T06:36:33.638Z,4.30
2023-03-02T06:37:33.387Z,4.39
2023-03-02T06:38:33.573Z,4.39
2023-03-02T06:39:33.716Z,4.33
2023-03-02T06:40:33.898Z,4.40
2023-03-02T06:41:34.405Z,4.39
2023-03-02T06:42:34.211Z,4.39
2023-03-02T06:43:34.410Z,4.42
2023-03-02T06:44:34.568Z,4.42
2023-03-02T06:45:34.780Z,4.48
2023-03-02T06:46:35.206Z,4.50
2023-03-02T06:47:35.058Z,4.53
2023-03-02T06:48:35.268Z,4.51
2023-03-02T06:49:35.423Z,4.54
2023-03-02T06:50:35.629Z,4.54
2023-03-02T06:51:35.755Z,4.53
2023-03-02T06:52:35.943Z,4.54
2023-03-02T06:53:36.131Z,4.53
2023-03-02T06:54:36.289Z,4.58
2023-03-02T06:55:36.432Z,4.55
2023-03-02T06:56:36.612Z,4.57
2023-03-02T06:57:36.826Z,4.57
2023-03-02T06:58:37.022Z,4.63
2023-03-02T06:59:37.133Z,4.65
2023-03-02T07:00:37.301Z,4.69
2023-03-02T07:01:37.524Z,4.69
2023-03-02T07:02:37.668Z,4.69
2023-03-02T07:03:37.911Z,4.72
2023-03-02T07:04:38.003Z,4.73
2023-03-02T07:05:38.152Z,4.72
2023-03-02T07:06:38.330Z,4.76
2023-03-02T07:07:38.510Z,4.75
2023-03-02T07:08:38.704Z,4.75
2023-03-02T07:09:38.860Z,4.78
2023-03-02T07:10:39.025Z,4.81
2023-03-02T07:11:39.197Z,4.82
2023-03-02T07:12:39.340Z,4.83
2023-03-02T07:13:39.516Z,4.87
2023-03-02T07:14:39.699Z,4.86
2023-03-02T07:15:39.880Z,4.91
2023-03-02T07:16:40.058Z,4.93
2023-03-02T07:17:40.208Z,4.94
2023-03-02T07:18:40.359Z,4.93
2023-03-02T07:19:41.094Z,4.96
2023-03-02T07:20:40.712Z,4.96
2023-03-02T07:21:40.861Z,5.00
2023-03-02T07:22:41.035Z,5.05
2023-03-02T07:23:41.167Z,5.05
2023-03-02T07:24:42.591Z,5.05
2023-03-02T07:25:41.532Z,5.05
2023-03-02T07:26:41.710Z,5.08
2023-03-02T07:27:41.852Z,5.08
2023-03-02T07:28:42.034Z,5.05
2023-03-02T07:29:42.227Z,5.11
2023-03-02T07:30:42.451Z,5.18
2023-03-02T07:31:42.579Z,5.21
2023-03-02T07:32:42.756Z,5.23
2023-03-02T07:33:42.935Z,5.26
2023-03-02T07:34:43.119Z,5.26
2023-03-02T07:35:43.355Z,5.29
2023-03-02T07:36:43.445Z,5.30
2023-03-02T07:37:43.595Z,5.34
2023-03-02T07:38:43.789Z,5.42
2023-03-02T07:39:43.947Z,5.45
2023-03-02T07:40:44.156Z,5.44
2023-03-02T07:41:44.293Z,5.48
2023-03-02T07:42:44.489Z,5.51
2023-03-02T07:43:44.692Z,5.54
2023-03-02T07:44:44.870Z,5.62
2023-03-02T07:45:45.014Z,5.70
2023-03-02T07:46:45.216Z,5.77
2023-03-02T07:47:45.318Z,5.81
2023-03-02T07:48:45.495Z,5.85
2023-03-02T07:49:45.629Z,5.88
2023-03-02T07:50:45.822Z,5.91
2023-03-02T07:51:45.998Z,5.99
2023-03-02T07:52:46.150Z,6.04
2023-03-02T07:53:46.294Z,6.12
2023-03-02T07:54:46.493Z,6.14
2023-03-02T07:55:46.630Z,6.24
2023-03-02T07:56:46.815Z,6.29
2023-03-02T07:57:46.982Z,6.36
2023-03-02T07:58:47.200Z,6.42
2023-03-02T07:59:47.353Z,6.50
2023-03-02T08:00:47.538Z,6.58
2023-03-02T08:01:47.726Z,6.70
2023-03-02T08:02:47.928Z,6.78
2023-03-02T08:03:48.102Z,6.83
2023-03-02T08:04:48.250Z,6.94
2023-03-02T08:05:48.415Z,7.01
2023-03-02T08:06:48.594Z,7.03
2023-03-02T08:07:48.781Z,7.17
2023-03-02T08:08:48.979Z,7.22
2023-03-02T08:09:49.122Z,7.26
2023-03-02T08:10:49.308Z,7.32
2023-03-02T08:11:49.500Z,7.42
2023-03-02T08:12:49.658Z,7.52
2023-03-02T08:13:49.851Z,7.59
2023-03-02T08:14:50.009Z,7.67
2023-03-02T08:15:50.241Z,7.74
2023-03-02T08:16:50.368Z,7.81
2023-03-02T08:17:50.553Z,7.91
2023-03-02T08:18:50.769Z,7.98
2023-03-02T08:19:50.912Z,8.06
2023-03-02T08:20:51.100Z,8.17
2023-03-02T08:21:51.248Z,8.22
2023-03-02T08:22:51.443Z,8.29
2023-03-02T08:23:51.686Z,8.39
2023-03-02T08:24:51.815Z,8.49
2023-03-02T08:25:51.963Z,8.57
2023-03-02T08:26:52.163Z,8.65
2023-03-02T08:27:52.358Z,8.73
2023-03-02T08:28:52.526Z,8.84
2023-03-02T08:29:52.713Z,8.90
2023-03-02T08:30:52.871Z,9.01
2023-03-02T08:31:53.118Z,9.06
2023-03-02T08:32:53.206Z,9.17
2023-03-02T08:33:53.379Z,9.17
2023-03-02T08:34:53.531Z,9.28
2023-03-02T08:35:53.734Z,9.39
2023-03-02T08:36:53.902Z,9.42
2023-03-02T08:37:54.068Z,9.48
2023-03-02T08:38:54.285Z,9.57
2023-03-02T08:39:54.436Z,9.66
2023-03-02T08:40:54.590Z,9.72
2023-03-02T08:41:54.776Z,9.82
2023-03-02T08:42:54.962Z,9.93
2023-03-02T08:43:55.154Z,10.08
2023-03-02T08:44:55.310Z,10.25
2023-03-02T08:45:55.554Z,10.36
2023-03-02T08:46:55.653Z,10.48
2023-03-02T08:47:55.859Z,10.58
2023-03-02T08:48:56.013Z,10.66
2023-03-02T08:49:56.177Z,10.73
2023-03-02T08:50:56.335Z,10.87
2023-03-02T08:51:56.542Z,11.06
2023-03-02T08:52:56.699Z,11.27
2023-03-02T08:53:56.893Z,11.46
2023-03-02T08:54:57.092Z,11.63
2023-03-02T08:55:57.213Z,11.80
2023-03-02T08:56:57.449Z,11.98
2023-03-02T08:57:57.578Z,12.06
2023-03-02T08:58:57.763Z,12.16
2023-03-02T08:59:57.945Z,12.26
2023-03-02T09:00:58.201Z,12.31
2023-03-02T09:01:58.294Z,12.41
2023-03-02T09:02:58.494Z,12.48
2023-03-02T09:03:58.653Z,12.60
2023-03-02T09:04:58.847Z,12.69
2023-03-02T09:05:58.995Z,12.72
2023-03-02T09:06:59.169Z,12.86
2023-03-02T09:07:59.315Z,12.91
2023-03-02T09:08:59.469Z,13.00
2023-03-02T09:09:59.653Z,13.07
2023-03-02T09:10:59.851Z,13.15
2023-03-02T09:12:00.064Z,13.22
2023-03-02T09:13:00.200Z,13.37
2023-03-02T09:14:00.405Z,13.53
2023-03-02T09:15:00.578Z,13.66
2023-03-02T09:16:00.745Z,13.80
2023-03-02T09:17:01.034Z,13.91
2023-03-02T09:18:01.085Z,14.04
2023-03-02T09:19:01.275Z,14.14
2023-03-02T09:20:01.433Z,14.26
2023-03-02T09:21:01.618Z,14.33
2023-03-02T09:22:01.817Z,14.47
2023-03-02T09:23:01.972Z,14.55
2023-03-02T09:24:02.199Z,14.65
2023-03-02T09:25:02.318Z,14.73
2023-03-02T09:26:02.516Z,14.88
2023-03-02T09:27:02.689Z,14.92
2023-03-02T09:28:02.853Z,15.06
2023-03-02T09:29:03.051Z,15.15
2023-03-02T09:30:03.214Z,15.30
2023-03-02T09:31:03.381Z,15.38
2023-03-02T09:32:03.751Z,15.49
2023-03-02T09:33:03.790Z,15.62
2023-03-02T09:34:03.924Z,15.74
2023-03-02T09:35:04.065Z,15.81
2023-03-02T09:36:04.301Z,15.92
2023-03-02T09:37:04.420Z,16.11
2023-03-02T09:38:04.642Z,16.20
2023-03-02T09:39:04.787Z,16.34
2023-03-02T09:40:04.980Z,16.44
2023-03-02T09:41:05.144Z,16.51
2023-03-02T09:42:05.332Z,16.66
2023-03-02T09:43:05.465Z,16.76
2023-03-02T09:44:05.659Z,16.90
2023-03-02T09:45:05.810Z,17.02
2023-03-02T09:46:06.045Z,17.15
2023-03-02T09:47:06.168Z,17.27
2023-03-02T09:48:06.341Z,17.40
2023-03-02T09:49:06.518Z,17.57
2023-03-02T09:50:06.715Z,17.70
2023-03-02T09:51:06.898Z,17.86
2023-03-02T09:52:07.022Z,17.98
2023-03-02T09:53:07.201Z,18.12
2023-03-02T09:54:07.411Z,18.26
2023-03-02T09:55:07.533Z,18.35
2023-03-02T09:56:07.731Z,18.54
2023-03-02T09:57:07.900Z,18.60
2023-03-02T09:58:08.071Z,18.79
2023-03-02T09:59:08.245Z,18.90
2023-03-02T10:00:18.744Z,19.05
2023-03-02T10:01:09.602Z,19.18
2023-03-02T10:02:08.793Z,19.34
2023-03-02T10:03:17.076Z,19.42
2023-03-02T10:04:10.203Z,19.58
2023-03-02T10:05:09.273Z,19.68
2023-03-02T10:06:09.447Z,19.83
2023-03-02T10:07:09.630Z,19.94
2023-03-02T10:08:09.790Z,20.09
2023-03-02T10:09:09.947Z,20.21
2023-03-02T10:10:10.146Z,20.35
2023-03-02T10:11:10.324Z,20.48
2023-03-02T10:12:10.530Z,20.57
2023-03-02T10:13:10.694Z,20.67
2023-03-02T10:14:10.878Z,20.79
2023-03-02T10:15:11.049Z,20.88
2023-03-02T10:16:11.282Z,20.94
2023-03-02T10:17:11.420Z,21.09
2023-03-02T10:18:11.597Z,21.21
2023-03-02T10:19:11.716Z,21.29
2023-03-02T10:20:11.919Z,21.35
2023-03-02T10:21:12.072Z,21.47
2023-03-02T10:22:12.287Z,21.56
2023-03-02T10:23:12.448Z,21.63
2023-03-02T10:24:12.644Z,21.78
2023-03-02T10:25:12.826Z,21.90
2023-03-02T10:26:13.031Z,21.99
2023-03-02T10:27:20.218Z,22.06
2023-03-02T10:28:13.356Z,22.12
2023-03-02T10:29:13.534Z,22.21
2023-03-02T10:30:13.721Z,22.27
2023-03-02T10:31:14.000Z,22.34
2023-03-02T10:32:14.119Z,22.39
2023-03-02T10:33:14.254Z,22.51
2023-03-02T10:34:14.427Z,22.61
2023-03-02T10:35:14.634Z,22.63
2023-03-02T10:36:14.801Z,22.74
2023-03-02T10:37:15.005Z,22.77
2023-03-02T10:38:15.164Z,22.83
2023-03-02T10:39:15.369Z,22.90
2023-03-02T10:40:15.500Z,22.98
2023-03-02T10:41:15.726Z,23.02
2023-03-02T10:42:15.886Z,23.08
2023-03-02T10:43:16.028Z,23.19
2023-03-02T10:44:16.218Z,23.22
2023-03-02T10:45:16.380Z,23.27
2023-03-02T10:46:16.557Z,23.34
2023-03-02T10:47:18.163Z,23.38
2023-03-02T10:48:16.888Z,23.48
2023-03-02T10:49:21.008Z,23.49
2023-03-02T10:50:17.236Z,23.59
2023-03-02T10:51:17.410Z,23.61
2023-03-02T10:52:17.564Z,23.64
2023-03-02T10:53:17.767Z,23.69
2023-03-02T10:54:17.902Z,23.75
2023-03-02T10:55:18.102Z,23.81
2023-03-02T10:56:18.320Z,23.82
2023-03-02T10:57:18.438Z,23.85
2023-03-02T10:58:18.584Z,23.89
2023-03-02T10:59:18.790Z,23.96
2023-03-02T11:00:18.940Z,23.96
2023-03-02T11:01:19.177Z,24.01
2023-03-02T11:02:19.296Z,24.09
2023-03-02T11:03:19.498Z,24.13
2023-03-02T11:04:19.670Z,24.20
2023-03-02T11:05:19.847Z,24.24
2023-03-02T11:06:20.032Z,24.28
2023-03-02T11:07:20.173Z,24.35
2023-03-02T11:08:20.358Z,24.38
2023-03-02T11:09:20.509Z,24.47
2023-03-02T11:10:20.687Z,24.50
2023-03-02T11:11:20.993Z,24.56
2023-03-02T11:12:21.068Z,24.65
2023-03-02T11:13:21.262Z,24.68
2023-03-02T11:14:21.452Z,24.72
2023-03-02T11:15:21.619Z,24.79
2023-03-02T11:16:21.845Z,24.86
2023-03-02T11:17:21.932Z,24.91
2023-03-02T11:18:22.121Z,24.97
2023-03-02T11:19:22.315Z,25.02
2023-03-02T11:20:22.497Z,25.05
2023-03-02T11:21:22.652Z,25.08
2023-03-02T11:22:22.806Z,25.12
2023-03-02T11:23:22.987Z,25.20
2023-03-02T11:24:23.155Z,25.21
2023-03-02T11:25:23.326Z,25.23
2023-03-02T11:26:23.502Z,25.27
2023-03-02T11:27:23.660Z,25.33
2023-03-02T11:28:23.803Z,25.39
2023-03-02T11:29:24.000Z,25.42
2023-03-02T11:30:24.190Z,25.46
2023-03-02T11:31:24.408Z,25.50
2023-03-02T11:32:24.528Z,25.55
2023-03-02T11:33:24.785Z,25.58
2023-03-02T11:34:24.859Z,25.63
2023-03-02T11:35:25.049Z,25.65
2023-03-02T11:36:25.205Z,25.68
2023-03-02T11:37:25.361Z,25.69
2023-03-02T11:38:25.521Z,25.78
2023-03-02T11:39:25.724Z,25.80
2023-03-02T11:40:25.882Z,25.86
2023-03-02T11:41:26.085Z,25.88
2023-03-02T11:42:26.244Z,25.95
2023-03-02T11:43:26.397Z,25.96
2023-03-02T11:44:26.545Z,26.03
2023-03-02T11:45:26.757Z,26.08
2023-03-02T11:46:27.002Z,26.13
2023-03-02T11:47:27.109Z,26.17
2023-03-02T11:48:27.257Z,26.23
2023-03-02T11:49:27.464Z,26.28
2023-03-02T11:50:27.636Z,26.36
2023-03-02T11:51:27.803Z,26.39
2023-03-02T11:52:28.001Z,26.46
2023-03-02T11:53:28.230Z,26.52
2023-03-02T11:54:28.343Z,26.60
2023-03-02T11:55:28.548Z,26.65
2023-03-02T11:56:28.702Z,26.69
2023-03-02T11:57:28.900Z,26.76
2023-03-02T11:58:29.086Z,26.82
2023-03-02T11:59:29.262Z,26.88
2023-03-02T12:00:29.426Z,26.95
2023-03-02T12:01:29.630Z,26.98
2023-03-02T12:02:29.764Z,27.10
2023-03-02T12:03:29.952Z,27.14
2023-03-02T12:04:30.103Z,27.17
2023-03-02T12:05:30.388Z,27.25
2023-03-02T12:06:30.527Z,27.26
2023-03-02T12:07:30.627Z,27.35
2023-03-02T12:08:30.811Z,27.37
2023-03-02T12:09:31.226Z,27.45
2023-03-02T12:10:31.208Z,27.48
2023-03-02T12:11:31.377Z,27.54
2023-03-02T12:12:31.526Z,27.57
2023-03-02T12:13:31.712Z,27.60
2023-03-02T12:14:31.850Z,27.64
2023-03-02T12:15:32.056Z,27.69
2023-03-02T12:16:32.530Z,27.74
2023-03-02T12:17:32.482Z,27.78
2023-03-02T12:18:32.557Z,27.84
2023-03-02T12:19:32.740Z,27.92
2023-03-02T12:20:33.910Z,27.94
2023-03-02T12:21:33.124Z,28.01
2023-03-02T12:22:33.303Z,28.04
2023-03-02T12:23:33.532Z,28.11
2023-03-02T12:24:33.665Z,28.15
2023-03-02T12:25:33.885Z,28.19
2023-03-02T12:26:34.618Z,28.26
2023-03-02T12:27:34.264Z,28.29
2023-03-02T12:28:34.432Z,28.34
2023-03-02T12:29:34.576Z,28.44
2023-03-02T12:30:34.771Z,28.51
2023-03-02T12:31:34.938Z,28.56
2023-03-02T12:32:35.112Z,28.60
2023-03-02T12:33:35.283Z,28.67
2023-03-02T12:34:35.466Z,28.72
2023-03-02T12:35:35.710Z,28.81
2023-03-02T12:36:35.837Z,28.86
2023-03-02T12:37:36.031Z,28.93
2023-03-02T12:38:36.251Z,28.98
2023-03-02T12:39:36.355Z,29.03
2023-03-02T12:40:36.560Z,29.16
2023-03-02T12:41:36.734Z,29.20
2023-03-02T12:42:36.881Z,29.30
2023-03-02T12:43:37.072Z,29.32
2023-03-02T12:44:37.222Z,29.40
2023-03-02T12:45:37.472Z,29.49
2023-03-02T12:46:37.642Z,29.54
2023-03-02T12:47:37.808Z,29.64
2023-03-02T12:48:38.081Z,29.71
2023-03-02T12:49:38.137Z,29.76
2023-03-02T12:50:38.290Z,29.87
2023-03-02T12:51:38.536Z,29.94
2023-03-02T12:52:38.698Z,30.03
2023-03-02T12:53:38.840Z,30.07
2023-03-02T12:54:39.027Z,30.17
2023-03-02T12:55:39.218Z,30.22
2023-03-02T12:56:39.360Z,30.21
2023-03-02T12:57:39.530Z,30.25
2023-03-02T12:58:39.705Z,30.17
2023-03-02T12:59:39.888Z,30.12
2023-03-02T13:00:40.078Z,30.12
2023-03-02T13:01:40.231Z,30.05
2023-03-02T13:02:40.440Z,30.03
2023-03-02T13:03:40.675Z,29.95
2023-03-02T13:04:40.751Z,29.94
2023-03-02T13:05:40.925Z,29.90
2023-03-02T13:06:41.085Z,29.88
2023-03-02T13:07:41.259Z,29.82
2023-03-02T13:08:41.486Z,29.76
2023-03-02T13:09:47.712Z,29.72
2023-03-02T13:10:42.852Z,29.69
2023-03-02T13:11:44.139Z,29.64
2023-03-02T13:12:42.157Z,29.62